createdAt,value
2017-04-01T00:08:48.849Z,99.2
2017-04-01T00:18:58.971Z,100
2017-04-01T00:29:09.056Z,100
2017-04-01T00:39:19.138Z,100
2017-04-01T00:49:29.201Z,100
2017-04-01T00:59:39.286Z,100
2017-04-01T01:09:49.405Z,99.8
2017-04-01T01:19:59.458Z,100
2017-04-01T01:30:09.534Z,100
2017-04-01T01:40:19.657Z,100
2017-04-01T01:50:29.781Z,100
2017-04-01T02:00:39.880Z,100
2017-04-01T02:10:50.023Z,100
2017-04-01T02:21:00.122Z,100
2017-04-01T02:31:10.208Z,100
2017-04-01T02:41:20.333Z,100
2017-04-01T02:51:30.439Z,100
2017-04-01T03:01:40.589Z,100
2017-04-01T03:11:50.729Z,99.9
2017-04-01T03:22:00.855Z,100
2017-04-01T03:32:10.998Z,99.9
2017-04-01T03:42:21.197Z,100
2017-04-01T03:52:31.398Z,100
2017-04-01T04:02:41.640Z,100
2017-04-01T04:12:51.909Z,100
2017-04-01T04:23:02.152Z,100
2017-04-01T04:33:12.474Z,100
2017-04-01T04:43:22.995Z,100
2017-04-01T04:53:33.151Z,100
2017-04-01T05:03:43.563Z,100
2017-04-01T05:13:53.911Z,99
2017-04-01T05:24:04.248Z,100
2017-04-01T05:34:14.616Z,100
2017-04-01T05:44:24.989Z,100
2017-04-01T05:54:35.320Z,100
2017-04-01T06:04:45.550Z,98.8
2017-04-01T06:14:55.623Z,100
2017-04-01T06:25:05.664Z,100
2017-04-01T06:35:15.668Z,97.6
2017-04-01T06:45:25.556Z,96.5
2017-04-01T06:55:35.424Z,96.1
2017-04-01T07:05:45.220Z,95.7
2017-04-01T07:15:54.935Z,94.1
2017-04-01T07:26:04.511Z,91.8
2017-04-01T07:36:13.927Z,89.7
2017-04-01T07:46:23.186Z,89.7
2017-04-01T07:56:32.312Z,90.2
2017-04-01T08:06:41.376Z,88.7
2017-04-01T08:16:50.408Z,85
2017-04-01T08:26:59.305Z,85.3
2017-04-01T08:37:08.241Z,82.7
2017-04-01T08:47:16.997Z,77.8
2017-04-01T08:57:25.530Z,76.8
2017-04-01T09:07:33.953Z,75
2017-04-01T09:17:42.525Z,75.7
2017-04-01T09:37:59.999Z,71.9
2017-04-01T09:48:08.542Z,71.7
2017-04-01T09:58:17.004Z,72
2017-04-01T10:08:25.445Z,69.3
2017-04-01T10:18:33.889Z,66.5
2017-04-01T10:28:42.124Z,67.7
2017-04-01T10:38:50.228Z,65.5
2017-04-01T10:48:58.319Z,63.9
2017-04-01T10:59:06.534Z,63.8
2017-04-01T11:09:14.775Z,64.5
2017-04-01T11:19:23.013Z,64.8
2017-04-01T11:29:31.281Z,64
2017-04-01T11:39:39.592Z,60.5
2017-04-01T11:49:47.721Z,57.5
2017-04-01T11:59:55.726Z,58.5
2017-04-01T12:10:03.850Z,57.1
2017-04-01T12:20:12.201Z,56
2017-04-01T12:30:20.665Z,58.2
2017-04-01T12:40:29.041Z,53.8
2017-04-01T12:50:37.595Z,51.7
2017-04-01T13:00:46.052Z,53
2017-04-01T13:10:54.342Z,51.8
2017-04-01T13:21:02.842Z,51.7
2017-04-01T13:31:10.960Z,52
2017-04-01T13:41:19.232Z,52.7
2017-04-01T13:51:27.427Z,57.5
2017-04-01T14:01:35.615Z,64.2
2017-04-01T14:11:43.859Z,62.2
2017-04-01T14:21:51.978Z,70.4
2017-04-01T14:32:00.047Z,70.8
2017-04-01T14:42:08.231Z,69.8
2017-04-01T14:52:16.546Z,70.5
2017-04-01T15:02:24.823Z,67.3
2017-04-01T15:12:33.088Z,63.5
2017-04-01T15:22:41.461Z,64.6
2017-04-01T15:32:50.174Z,67.2
2017-04-01T15:42:59.030Z,66.3
2017-04-01T15:53:07.877Z,65.9
2017-04-01T16:03:16.891Z,65.1
2017-04-01T16:13:26.073Z,66.5
2017-04-01T16:23:35.326Z,68.6
2017-04-01T16:33:44.639Z,70.1
2017-04-01T16:43:53.950Z,69.3
2017-04-01T16:54:03.269Z,69.7
2017-04-01T17:04:12.574Z,71.2
2017-04-01T17:14:21.975Z,71.8
2017-04-01T17:24:31.441Z,72
2017-04-01T17:34:41.047Z,74.2
2017-04-01T17:44:50.755Z,77
2017-04-01T17:55:00.609Z,79.8
2017-04-01T18:05:10.519Z,81
2017-04-01T18:15:20.431Z,81.5
2017-04-01T18:25:30.356Z,83.8
2017-04-01T18:35:40.363Z,84.8
2017-04-01T18:45:50.414Z,87.8
2017-04-01T18:56:00.502Z,90.3
2017-04-01T19:06:10.594Z,92.9
2017-04-01T19:16:20.718Z,94.9
2017-04-01T19:26:30.785Z,96.9
2017-04-01T19:36:40.889Z,97.8
2017-04-01T19:46:51.012Z,97.5
2017-04-01T19:57:01.161Z,100
2017-04-01T20:07:11.316Z,100
2017-04-01T20:17:21.538Z,100
2017-04-01T20:27:31.781Z,100
2017-04-01T20:37:42.116Z,100
2017-04-01T20:47:52.474Z,100
2017-04-01T20:58:02.839Z,100
2017-04-01T21:08:13.216Z,100
2017-04-01T21:18:23.595Z,100
2017-04-01T21:28:34.026Z,100
2017-04-01T21:38:44.473Z,100
2017-04-01T21:48:54.896Z,100
2017-04-01T21:59:05.279Z,100
2017-04-01T22:09:15.993Z,100
2017-04-01T22:19:26.111Z,100
2017-04-01T22:29:36.996Z,100
2017-04-01T22:39:47.200Z,100
2017-04-01T22:49:57.432Z,100
2017-04-01T23:00:07.895Z,100
2017-04-01T23:10:18.244Z,100
2017-04-01T23:20:28.587Z,100
2017-04-01T23:30:38.963Z,100
2017-04-01T23:40:49.551Z,100
2017-04-01T23:51:00.109Z,100
